Time;durP1;ratioP1;P1;durP2;ratioP2;P2;SDS_P1;SDS_P2;PMS_P1;PMS_P2;Temp;Humidity;BMP_temperature;BMP_pressure;BME280_temperature;BME280_humidity;BME280_pressure;Samples;Min_cycle;Max_cycle;Signal;HPM_P1;HPM_P2
2022/09/23 00:00:45;;;;;;;;;;;;;;;11.35;100.00;-21133.09;4876259;29;19934;-80
2022/09/23 00:03:51;;;;;;;;;;;;;;;11.29;100.00;-22766.97;4863319;29;19924;-79
2022/09/23 00:07:10;;;;;;;;;;;;;;;11.30;100.00;-24728.56;4874125;29;19960;-79
2022/09/23 00:13:39;;;;;;;;;;;;;;;11.21;100.00;-25381.41;4868637;29;19930;-79
2022/09/23 00:16:56;;;;;;;;;;;;;;;11.14;100.00;-25379.66;4858701;29;20412;-79
2022/09/23 00:20:00;;;;;;;;;;;;;;;10.99;100.00;-25375.25;4824797;29;19928;-79
2022/09/23 00:32:10;;;;;;;;;;;;;;;10.87;100.00;-25371.88;4867550;29;19942;-80
2022/09/23 00:41:46;;;;;;;;;;;;;;;10.85;100.00;-25371.28;4973609;28;20093;-78
2022/09/23 00:45:01;;;;;;;;;;;;;;;10.85;100.00;-25371.28;4994320;28;20437;-78
2022/09/23 00:48:11;;;;;;;;;;;;;;;10.84;100.00;-25370.84;4976258;28;20583;-78
2022/09/23 00:51:30;;;;;;;;;;;;;;;10.77;100.00;-25368.94;4964815;28;20012;-79
2022/09/23 00:54:45;;;;;;;;;;;;;;;10.76;100.00;-25368.66;4974563;28;19926;-79
2022/09/23 00:58:04;;;;;;;;;;;;;;;10.72;100.00;-25367.63;4969552;28;20016;-79
2022/09/23 01:01:10;;;;;;;;;;;;;;;10.72;100.00;-25367.63;4976817;28;19937;-78
2022/09/23 01:07:04;;;;;;;;;;;;;;;10.73;100.00;-25367.78;4956317;28;19959;-78
2022/09/23 01:10:04;;;;;;;;;;;;;;;10.70;100.00;-25367.03;4960550;28;19941;-79
2022/09/23 01:13:07;;;;;;;;;;;;;;;10.73;100.00;-25367.91;4916232;29;19919;-79
2022/09/23 01:19:27;;;;;;;;;;;;;;;10.78;100.00;-25369.25;4878305;29;19930;-80
2022/09/23 01:22:34;;;;;;;;;;;;;;;10.77;100.00;-25369.09;4900359;29;20467;-79
2022/09/23 01:25:43;;;;;;;;;;;;;;;10.75;100.00;-25368.50;4963623;28;19919;-79
2022/09/23 04:36:50;;;;;;;;;;;;;;;10.89;100.00;-9008.38;5014397;28;19932;-80
2022/09/23 04:43:50;;;;;;;;;;;;;;;10.92;100.00;-9008.44;5015397;28;19929;-84
2022/09/23 04:47:18;;;;;;;;;;;;;;;10.98;100.00;-9008.59;4955934;29;19922;-81
2022/09/23 04:50:36;;;;;;;;;;;;;;;10.98;100.00;-9008.59;4936248;29;20098;-79
2022/09/23 04:56:55;;;;;;;;;;;;;;;11.05;100.00;-9008.78;4928434;29;19983;-82
2022/09/23 05:03:12;;;;;;;;;;;;;;;11.07;100.00;-9008.81;4995902;28;19954;-82
2022/09/23 05:06:20;;;;;;;;;;;;;;;11.09;100.00;-8680.81;4992803;28;19922;-82
2022/09/23 05:09:16;;;;;;;;;;;;;;;11.09;100.00;-8352.75;4973321;28;19969;-82
2022/09/23 05:12:28;;;;;;;;;;;;;;;11.06;100.00;-8352.69;4954250;29;19919;-81
2022/09/23 05:15:16;;;;;;;;;;;;;;;11.06;100.00;-9664.81;4964856;28;19934;-80
2022/09/23 05:18:29;;;;;;;;;;;;;;;11.09;100.00;-11304.56;4967837;28;19978;-80
2022/09/23 05:21:45;;;;;;;;;;;;;;;11.09;100.00;-12943.47;4859306;29;19924;-80
2022/09/23 05:25:05;;;;;;;;;;;;;;;11.09;100.00;-13598.78;4963498;28;19956;-82
2022/09/23 05:28:18;;;;;;;;;;;;;;;11.10;100.00;-13926.59;4978714;28;19925;-82
2022/09/23 05:31:15;;;;;;;;;;;;;;;11.12;100.00;-13926.78;4971010;28;20008;-82
2022/09/23 05:34:22;;;;;;;;;;;;;;;11.19;100.00;-14255.09;4975558;28;20408;-85
2022/09/23 05:37:09;;;;;;;;;;;;;;;11.25;100.00;-14255.81;4970102;28;19945;-85
2022/09/23 05:40:41;;;;;;;;;;;;;;;11.27;100.00;-13600.56;4974297;28;19937;-83
2022/09/23 05:43:44;;;;;;;;;;;;;;;11.26;100.00;-13272.75;4953860;29;19922;-81
2022/09/23 05:46:57;;;;;;;;;;;;;;;11.30;100.00;-12945.31;4935212;29;20256;-82
2022/09/23 05:50:01;;;;;;;;;;;;;;;11.31;100.00;-13600.97;4897407;29;19923;-83
2022/09/23 05:56:00;;;;;;;;;;;;;;;11.34;100.00;-14256.78;4920221;29;19934;-83
2022/09/23 05:58:49;;;;;;;;;;;;;;;11.36;100.00;-14256.94;4932810;29;19927;-84
2022/09/23 06:01:35;;;;;;;;;;;;;;;11.37;100.00;-14257.13;4955483;29;19954;-81
2022/09/23 06:04:02;;;;;;;;;;;;;;;11.39;100.00;-14585.06;4970865;28;20008;-79
2022/09/23 06:06:27;;;;;;;;;;;;;;;11.44;100.00;-14913.34;4973732;28;20069;-79
2022/09/23 06:08:54;;;;;;;;;;;;;;;11.48;100.00;-15241.63;4977231;28;20032;-80
2022/09/23 06:11:21;;;;;;;;;;;;;;;11.53;100.00;-15242.19;4971381;28;20371;-80
2022/09/23 06:13:49;;;;;;;;;;;;;;;11.60;100.00;-15570.78;4997585;28;19917;-79
2022/09/23 06:16:14;;;;;;;;;;;;;;;11.63;100.00;-15243.41;4994225;28;19929;-79
2022/09/23 06:18:41;;;;;;;;;;;;;;;11.72;100.00;-14916.66;5015811;28;19921;-79
2022/09/23 06:21:07;;;;;;;;;;;;;;;11.77;100.00;-14261.41;4997914;28;19981;-78
2022/09/23 06:23:41;;;;;;;;;;;;;;;11.84;100.00;-13934.19;4998256;28;20301;-79
2022/09/23 06:26:09;;;;;;;;;;;;;;;11.91;100.00;-13934.88;4998674;28;20361;-80
2022/09/23 06:28:35;;;;;;;;;;;;;;;11.90;100.00;-13934.78;4998737;28;20087;-79
2022/09/23 06:31:02;;;;;;;;;;;;;;;11.95;100.00;-13935.38;5015579;28;19932;-78
2022/09/23 06:33:27;;;;;;;;;;;;;;;11.94;100.00;-12950.88;5014433;28;19968;-78
2022/09/23 06:36:00;;;;;;;;;;;;;;;11.99;100.00;-12623.19;4999022;28;20381;-79
2022/09/23 06:38:25;;;;;;;;;;;;;;;12.02;100.00;-12295.16;4999237;28;20020;-79
2022/09/23 06:40:53;;;;;;;;;;;;;;;12.12;100.00;-11639.25;4999018;28;19964;-78
2022/09/23 06:43:18;;;;;;;;;;;;;;;12.03;100.00;-9996.78;5014805;28;20382;-79
2022/09/23 06:45:43;;;;;;;;;;;;;;;12.21;100.00;-9997.53;4997391;28;19959;-79
2022/09/23 06:48:10;;;;;;;;;;;;;;;12.35;100.00;-9012.09;5015918;28;20302;-77
2022/09/23 06:50:36;;;;;;;;;;;;;;;12.41;100.00;-8025.91;5002537;28;20443;-79
2022/09/23 06:53:03;;;;;;;;;;;;;;;12.55;100.00;-7368.19;5023189;28;19921;-81
2022/09/23 06:55:29;;;;;;;;;;;;;;;12.66;100.00;-6051.94;5018914;28;19928;-79
2022/09/23 06:57:56;;;;;;;;;;;;;;;12.69;100.00;-4076.56;5006323;28;20352;-80
2022/09/23 07:00:22;;;;;;;;;;;;;;;12.75;100.00;-2758.69;5008099;28;19925;-80
2022/09/23 07:02:47;;;;;;;;;;;;;;;12.82;100.00;-1769.56;5023877;28;19983;-80
2022/09/23 07:05:15;;;;;;;;;;;;;;;12.83;100.00;-450.94;5026309;28;19948;-81
2022/09/23 07:07:40;;;;;;;;;;;;;;;12.92;100.00;869.19;5026519;28;19917;-80
2022/09/23 07:10:06;;;;;;;;;;;;;;;12.99;100.00;1859.84;5025988;28;20016;-81
2022/09/23 07:12:32;;;;;;;;;;;;;;;13.14;100.00;2522.19;5024776;28;19999;-83
2022/09/23 07:14:59;;;;;;;;;;;;;;;13.23;100.00;4174.84;5031390;28;19923;-82
2022/09/23 07:17:25;;;;;;;;;;;;;;;13.37;100.00;6160.13;5026121;28;19935;-82
2022/09/23 07:19:51;;;;;;;;;;;;;;;13.41;100.00;8806.25;5014548;28;19964;-82
2022/09/23 07:22:20;;;;;;;;;;;;;;;13.51;100.00;10794.44;5028844;28;19925;-81
2022/09/23 07:24:47;;;;;;;;;;;;;;;13.60;100.00;12783.94;5024817;28;19919;-82
2022/09/23 07:27:18;;;;;;;;;;;;;;;13.77;100.00;16767.19;5009656;28;19921;-83
2022/09/23 07:29:46;;;;;;;;;;;;;;;13.89;100.00;20754.38;5025424;28;20288;-83
2022/09/23 07:32:11;;;;;;;;;;;;;;;13.94;100.00;23413.97;5023122;28;19921;-82
2022/09/23 07:34:37;;;;;;;;;;;;;;;13.90;100.00;27068.78;5027702;28;20332;-82
2022/09/23 07:37:03;;;;;;;;;;;;;;;13.99;100.00;28737.75;5021708;28;19917;-83
2022/09/23 07:39:28;;;;;;;;;;;;;;;13.74;100.00;32050.88;5025242;28;20012;-81
2022/09/23 07:41:53;;;;;;;;;;;;;;;13.75;100.00;31053.16;5011566;28;19928;-82
2022/09/23 07:44:20;;;;;;;;;;;;;;;13.90;100.00;29730.47;5022876;28;20338;-81
2022/09/23 07:46:47;;;;;;;;;;;;;;;13.86;100.00;30726.88;5021027;28;19917;-80
2022/09/23 07:49:12;;;;;;;;;;;;;;;13.85;100.00;30393.06;5019504;28;20007;-83
2022/09/23 07:51:40;;;;;;;;;;;;;;;13.91;100.00;30063.91;5019892;28;19960;-79
2022/09/23 07:54:07;;;;;;;;;;;;;;;14.08;100.00;28742.78;5012891;28;19921;-80
2022/09/23 07:56:33;;;;;;;;;;;;;;;14.09;100.00;30074.66;4999180;28;19963;-80
2022/09/23 07:58:59;;;;;;;;;;;;;;;14.14;100.00;31077.13;5001425;28;19925;-79
2022/09/23 08:01:29;;;;;;;;;;;;;;;14.27;100.00;31084.69;5001505;28;20401;-80
2022/09/23 08:03:55;;;;;;;;;;;;;;;14.34;100.00;33088.63;5013342;28;19917;-82
2022/09/23 08:06:22;;;;;;;;;;;;;;;14.39;100.00;37428.13;4999549;28;19917;-83
2022/09/23 08:08:49;;;;;;;;;;;;;;;14.45;100.00;40437.63;4999236;28;19917;-83
2022/09/23 08:11:15;;;;;;;;;;;;;;;14.60;100.00;42454.13;5017000;28;20326;-82
2022/09/23 08:13:41;;;;;;;;;;;;;;;14.82;100.00;48160.06;4998094;28;19948;-81
2022/09/23 08:16:07;;;;;;;;;;;;;;;14.97;100.00;52194.75;4997904;28;19917;-80
2022/09/23 08:18:33;;;;;;;;;;;;;;;15.19;100.00;56242.78;5003362;28;19925;-79
2022/09/23 08:20:58;;;;;;;;;;;;;;;15.31;100.00;63650.28;4998184;28;19924;-80
2022/09/23 08:23:25;;;;;;;;;;;;;;;15.39;100.00;70057.44;5000229;28;20043;-82
2022/09/23 08:25:58;;;;;;;;;;;;;;;15.43;100.00;76134.06;4999417;28;20342;-80
2022/09/23 08:28:24;;;;;;;;;;;;;;;15.50;100.00;84253.53;5003435;28;19921;-81
2022/09/23 08:30:50;;;;;;;;;;;;;;;15.57;100.00;91375.94;5005307;28;20366;-81
2022/09/23 08:33:16;;;;;;;;;;;;;;;15.74;100.00;92419.16;4999442;28;19972;-82
2022/09/23 08:35:41;;;;;;;;;;;;;;;15.52;100.00;104266.31;4999163;28;20439;-81
2022/09/23 08:38:07;;;;;;;;;;;;;;;15.54;100.00;109713.44;4998017;28;19917;-82
2022/09/23 08:40:38;;;;;;;;;;;;;;;15.56;100.00;113123.22;4998093;28;20365;-83
2022/09/23 08:43:32;;;;;;;;;;;;;;;15.47;100.00;120947.59;4998636;28;20149;-82
2022/09/23 08:46:02;;;;;;;;;;;;;;;15.52;100.00;124373.28;4974350;28;19922;-79
2022/09/23 08:48:33;;;;;;;;;;;;;;;15.57;100.00;121652.72;4995477;28;19964;-78
2022/09/23 08:51:04;;;;;;;;;;;;;;;15.72;100.00;123732.28;4995903;28;19914;-77
2022/09/23 08:53:33;;;;;;;;;;;;;;;15.82;100.00;129566.97;4979188;28;19925;-76
2022/09/23 08:56:02;;;;;;;;;;;;;;;15.78;100.00;135723.69;4995704;28;20435;-77
2022/09/23 08:58:42;;;;;;;;;;;;;;;15.95;100.00;146745.34;4995828;28;20019;-77
2022/09/23 09:01:07;;;;;;;;;;;;;;;16.13;100.00;146790.06;4995241;28;19918;-79
2022/09/23 09:03:53;;;;;;;;;;;;;;;16.03;100.00;146765.75;4994543;28;19918;-78
2022/09/23 09:06:21;;;;;;;;;;;;;;;16.19;100.00;146804.06;4995536;28;19925;-79
2022/09/23 09:08:51;;;;;;;;;;;;;;;16.27;100.00;146824.53;4994759;28;19940;-79
2022/09/23 09:11:18;;;;;;;;;;;;;;;16.35;100.00;146843.72;4994472;28;20012;-78
2022/09/23 09:13:59;;;;;;;;;;;;;;;16.65;100.00;146920.31;4994159;28;19971;-77
2022/09/23 09:16:37;;;;;;;;;;;;;;;16.68;100.00;146926.72;4995203;28;20340;-79
2022/09/23 09:19:06;;;;;;;;;;;;;;;16.77;100.00;146948.47;4995728;28;19917;-78
2022/09/23 09:21:36;;;;;;;;;;;;;;;16.64;100.00;146916.47;4995664;28;19924;-79
2022/09/23 09:24:07;;;;;;;;;;;;;;;16.77;100.00;146948.47;5012918;28;19963;-79
2022/09/23 09:26:32;;;;;;;;;;;;;;;16.85;100.00;146970.16;4995855;28;19925;-79
2022/09/23 09:29:04;;;;;;;;;;;;;;;16.92;100.00;146986.84;4995575;28;19917;-78
2022/09/23 09:31:41;;;;;;;;;;;;;;;17.03;100.00;147013.69;4995220;28;20318;-78
2022/09/23 09:34:26;;;;;;;;;;;;;;;16.94;100.00;146990.69;4995433;28;19913;-77
2022/09/23 09:36:55;;;;;;;;;;;;;;;16.80;100.00;146956.13;4995944;28;20012;-79
2022/09/23 09:39:20;;;;;;;;;;;;;;;16.93;100.00;146988.09;4995473;28;19917;-77
2022/09/23 09:41:47;;;;;;;;;;;;;;;17.08;100.00;147026.44;4995730;28;20142;-77
2022/09/23 09:44:30;;;;;;;;;;;;;;;17.16;100.00;147045.63;4995485;28;20015;-77
2022/09/23 09:46:59;;;;;;;;;;;;;;;17.23;100.00;147064.81;4995885;28;19918;-79
2022/09/23 09:49:39;;;;;;;;;;;;;;;17.46;100.00;147121.03;4999860;28;19921;-79
2022/09/23 09:52:12;;;;;;;;;;;;;;;17.30;100.00;147081.41;5000773;28;19917;-81
2022/09/23 09:54:38;;;;;;;;;;;;;;;17.26;100.00;147069.91;5000799;28;19936;-82
2022/09/23 09:57:14;;;;;;;;;;;;;;;17.14;100.00;147041.78;5000885;28;19922;-82
2022/09/23 09:59:41;;;;;;;;;;;;;;;17.22;100.00;147060.97;5000543;28;19924;-82
2022/09/23 10:02:11;;;;;;;;;;;;;;;17.37;100.00;147098.00;5000145;28;20024;-82
2022/09/23 10:04:36;;;;;;;;;;;;;;;17.31;100.00;147083.97;5002261;28;19971;-82
2022/09/23 10:07:11;;;;;;;;;;;;;;;17.29;100.00;147077.56;5019685;28;19917;-81
2022/09/23 10:09:37;;;;;;;;;;;;;;;17.40;100.00;147107.00;5004957;28;20423;-82
2022/09/23 10:12:10;;;;;;;;;;;;;;;17.55;100.00;147144.03;5003243;28;19917;-82
2022/09/23 10:14:36;;;;;;;;;;;;;;;17.33;100.00;147089.06;5009164;28;19918;-82
2022/09/23 10:17:04;;;;;;;;;;;;;;;17.36;100.00;147095.47;4986448;28;19928;-80
2022/09/23 10:19:29;;;;;;;;;;;;;;;17.39;100.00;147103.16;4999302;28;20196;-81
2022/09/23 10:21:59;;;;;;;;;;;;;;;17.39;100.00;147103.16;4999556;28;20008;-79
2022/09/23 10:24:37;;;;;;;;;;;;;;;17.38;100.00;147101.84;4999619;28;20317;-81
2022/09/23 10:27:06;;;;;;;;;;;;;;;17.35;100.00;147094.19;4999393;28;19917;-80
2022/09/23 10:29:31;;;;;;;;;;;;;;;17.40;100.00;147107.00;4999281;28;19949;-80
2022/09/23 10:32:19;;;;;;;;;;;;;;;17.46;100.00;147121.03;4998844;28;19968;-82
2022/09/23 10:34:48;;;;;;;;;;;;;;;17.38;100.00;147100.59;4997769;28;20378;-79
2022/09/23 10:37:23;;;;;;;;;;;;;;;17.37;100.00;147099.31;4999143;28;19918;-80
2022/09/23 10:48:28;;;;;;;;;;;;;;;17.70;100.00;147181.13;5016206;28;20014;-81
2022/09/23 10:50:54;;;;;;;;;;;;;;;17.93;100.00;147238.72;4998915;28;19924;-79
2022/09/23 10:53:22;;;;;;;;;;;;;;;17.83;100.00;147213.09;4998548;28;19917;-80
2022/09/23 10:55:57;;;;;;;;;;;;;;;17.81;100.00;147206.72;4998885;28;19963;-80
2022/09/23 10:58:22;;;;;;;;;;;;;;;18.16;100.00;147294.97;4998884;28;19917;-79
2022/09/23 11:01:06;;;;;;;;;;;;;;;18.17;100.00;147297.56;4998757;28;19918;-80
2022/09/23 11:03:38;;;;;;;;;;;;;;;18.21;100.00;147307.81;4998784;28;19924;-79
2022/09/23 11:06:18;;;;;;;;;;;;;;;18.24;100.00;147314.16;4999197;28;20468;-80
2022/09/23 11:08:49;;;;;;;;;;;;;;;18.39;100.00;147351.28;4998676;28;19922;-79
2022/09/23 11:11:24;;;;;;;;;;;;;;;18.50;100.00;147378.16;4999008;28;19921;-79
2022/09/23 11:14:04;;;;;;;;;;;;;;;18.48;100.00;147375.56;4998980;28;19967;-77
2022/09/23 11:16:48;;;;;;;;;;;;;;;18.56;100.00;147394.78;4997214;28;19918;-80
2022/09/23 11:19:24;;;;;;;;;;;;;;;18.53;100.00;147385.84;4998038;28;19969;-81
2022/09/23 11:21:50;;;;;;;;;;;;;;;18.22;100.00;147310.34;4999101;28;19918;-81
2022/09/23 11:24:39;;;;;;;;;;;;;;;18.38;100.00;147350.03;4998305;28;19918;-80
2022/09/23 11:27:17;;;;;;;;;;;;;;;18.48;100.00;147375.56;4999799;28;19917;-80
2022/09/23 11:29:43;;;;;;;;;;;;;;;18.54;100.00;147389.66;4998852;28;19917;-81
2022/09/23 11:32:26;;;;;;;;;;;;;;;18.47;100.00;147371.75;4998739;28;20257;-80
2022/09/23 11:35:10;;;;;;;;;;;;;;;18.44;100.00;147364.06;4999420;28;19975;-80
2022/09/23 11:37:39;;;;;;;;;;;;;;;18.58;100.00;147399.94;4998527;28;19918;-80
2022/09/23 11:40:17;;;;;;;;;;;;;;;18.93;100.00;147486.97;4998301;28;19925;-79
2022/09/23 11:43:06;;;;;;;;;;;;;;;18.86;100.00;147467.75;4998353;28;19964;-79
2022/09/23 11:45:48;;;;;;;;;;;;;;;19.16;100.00;147543.28;4987509;28;20030;-80
2022/09/23 11:48:32;;;;;;;;;;;;;;;19.27;100.00;147571.44;4998421;28;19935;-79
2022/09/23 11:51:01;;;;;;;;;;;;;;;19.71;100.00;147681.53;4998275;28;19917;-80
2022/09/23 11:53:41;;;;;;;;;;;;;;;19.83;100.00;147709.78;4999305;28;20381;-80
2022/09/23 11:56:14;;;;;;;;;;;;;;;19.85;100.00;147716.16;5015723;28;19921;-80
2022/09/23 11:58:53;;;;;;;;;;;;;;;19.76;100.00;147691.78;4997800;28;19917;-81
2022/09/23 12:01:41;;;;;;;;;;;;;;;19.67;100.00;147671.31;4997863;28;19926;-80
2022/09/23 12:04:20;;;;;;;;;;;;;;;19.52;100.00;147634.16;4997671;28;20386;-81
2022/09/23 12:06:47;;;;;;;;;;;;;;;19.51;100.00;147630.31;4997784;28;20366;-80
2022/09/23 12:09:19;;;;;;;;;;;;;;;19.59;100.00;147650.78;4997318;28;20385;-80
2022/09/23 12:11:58;;;;;;;;;;;;;;;19.51;100.00;147631.63;4996780;28;19925;-80
2022/09/23 12:14:29;;;;;;;;;;;;;;;19.63;100.00;147661.06;4996615;28;20505;-80
2022/09/23 12:17:13;;;;;;;;;;;;;;;19.67;100.00;147671.31;4996856;28;19965;-81
2022/09/23 12:19:50;;;;;;;;;;;;;;;19.68;100.00;147672.56;4996899;28;19924;-79
2022/09/23 12:22:46;;;;;;;;;;;;;;;19.86;100.00;147717.47;5014853;28;19974;-80
2022/09/23 12:25:25;;;;;;;;;;;;;;;19.72;100.00;147684.09;4997167;28;19917;-80
2022/09/23 12:27:54;;;;;;;;;;;;;;;19.68;100.00;147673.84;4997082;28;19964;-80
2022/09/23 12:30:25;;;;;;;;;;;;;;;19.72;100.00;147682.84;4996893;28;19979;-80
2022/09/23 12:32:53;;;;;;;;;;;;;;;19.37;100.00;147597.06;4996559;28;19956;-79
2022/09/23 12:35:21;;;;;;;;;;;;;;;19.72;100.00;147682.84;4980900;28;20360;-80
2022/09/23 12:37:47;;;;;;;;;;;;;;;19.60;100.00;147652.09;4997413;28;19917;-80
2022/09/23 12:40:19;;;;;;;;;;;;;;;19.61;100.00;147654.63;4996769;28;19984;-81
2022/09/23 12:42:53;;;;;;;;;;;;;;;19.50;100.00;147627.78;4997315;28;20016;-80
2022/09/23 12:45:31;;;;;;;;;;;;;;;19.65;100.00;147664.91;4996545;28;20365;-80
2022/09/23 12:48:02;;;;;;;;;;;;;;;19.79;100.00;147699.53;4997245;28;19991;-80
2022/09/23 12:50:46;;;;;;;;;;;;;;;19.81;100.00;147704.63;4981042;28;19940;-81
2022/09/23 12:53:31;;;;;;;;;;;;;;;19.94;100.00;147736.69;5014640;28;19914;-80
2022/09/23 12:55:57;;;;;;;;;;;;;;;19.90;100.00;147727.69;4997231;28;19928;-80
2022/09/23 12:58:36;;;;;;;;;;;;;;;19.72;100.00;147684.09;4996876;28;19917;-81
2022/09/23 13:01:05;;;;;;;;;;;;;;;19.59;100.00;147649.53;4997622;28;20012;-80
2022/09/23 13:09:01;;;;;;;;;;;;;;;19.34;100.00;147588.06;5014479;28;19925;-81
2022/09/23 13:11:30;;;;;;;;;;;;;;;19.50;100.00;147627.78;4996952;28;19914;-83
2022/09/23 13:14:03;;;;;;;;;;;;;;;19.30;100.00;147577.84;5015301;28;19940;-81
2022/09/23 13:16:33;;;;;;;;;;;;;;;19.53;100.00;147636.75;4997231;28;19917;-83
2022/09/23 13:19:05;;;;;;;;;;;;;;;19.53;100.00;147635.47;4997510;28;19918;-82
2022/09/23 13:21:43;;;;;;;;;;;;;;;19.55;100.00;147641.84;4997173;28;19913;-83
2022/09/23 13:24:16;;;;;;;;;;;;;;;19.33;100.00;147586.81;4997381;28;19921;-84
2022/09/23 13:27:00;;;;;;;;;;;;;;;19.34;100.00;147589.38;5015348;28;19985;-80
2022/09/23 13:29:27;;;;;;;;;;;;;;;19.51;100.00;147630.31;4979657;28;19922;-82
2022/09/23 13:31:56;;;;;;;;;;;;;;;19.72;100.00;147682.84;4994943;28;20016;-81
2022/09/23 13:34:27;;;;;;;;;;;;;;;19.72;100.00;147684.09;5012666;28;19917;-81
2022/09/23 13:37:18;;;;;;;;;;;;;;;19.55;100.00;147641.84;4998158;28;20016;-82
2022/09/23 13:39:44;;;;;;;;;;;;;;;19.49;100.00;147625.22;4980992;28;19987;-80
2022/09/23 13:42:17;;;;;;;;;;;;;;;19.37;100.00;147597.06;4996057;28;20279;-83
2022/09/23 13:44:43;;;;;;;;;;;;;;;19.40;100.00;147602.16;4994890;28;19942;-82
2022/09/23 13:47:11;;;;;;;;;;;;;;;19.26;100.00;147568.88;4995997;28;20025;-82
2022/09/23 13:49:42;;;;;;;;;;;;;;;19.26;100.00;147568.88;5009620;28;19975;-83
2022/09/23 13:52:22;;;;;;;;;;;;;;;19.31;100.00;147581.69;4996013;28;19921;-82
2022/09/23 13:54:49;;;;;;;;;;;;;;;19.23;100.00;147561.19;4995657;28;19928;-83
2022/09/23 13:57:25;;;;;;;;;;;;;;;19.09;100.00;147525.34;4995264;28;19925;-81
2022/09/23 14:00:00;;;;;;;;;;;;;;;18.93;100.00;147486.97;4996759;28;19929;-81
2022/09/23 14:02:40;;;;;;;;;;;;;;;18.68;100.00;147422.97;5013558;28;19918;-84
2022/09/23 14:05:15;;;;;;;;;;;;;;;18.81;100.00;147456.19;5013657;28;19928;-83
2022/09/23 14:08:01;;;;;;;;;;;;;;;18.81;100.00;147456.19;5013534;28;20450;-82
2022/09/23 14:10:49;;;;;;;;;;;;;;;18.73;100.00;147437.00;4999073;28;19921;-84
2022/09/23 14:13:22;;;;;;;;;;;;;;;18.82;100.00;147460.03;5013173;28;20064;-82
2022/09/23 14:15:55;;;;;;;;;;;;;;;18.82;100.00;147458.78;5013364;28;19940;-82
2022/09/23 14:18:43;;;;;;;;;;;;;;;18.77;100.00;147446.00;4996007;28;20034;-82
2022/09/23 14:21:28;;;;;;;;;;;;;;;18.71;100.00;147430.63;4992729;28;20019;-82
2022/09/23 14:23:54;;;;;;;;;;;;;;;18.79;100.00;147452.34;4996056;28;19945;-81
2022/09/23 14:26:22;;;;;;;;;;;;;;;18.60;100.00;147403.75;5008362;28;20366;-81
2022/09/23 14:29:07;;;;;;;;;;;;;;;18.52;100.00;147383.25;5012131;28;19986;-81
2022/09/23 14:31:37;;;;;;;;;;;;;;;18.60;100.00;147403.75;5013449;28;20016;-82
2022/09/23 14:34:02;;;;;;;;;;;;;;;18.61;100.00;147407.59;4993207;28;19918;-82
2022/09/23 14:39:34;;;;;;;;;;;;;;;18.25;100.00;147318.00;5002595;28;19984;-83
2022/09/23 14:42:05;;;;;;;;;;;;;;;18.20;100.00;147303.97;4999345;28;19917;-82
2022/09/23 14:44:52;;;;;;;;;;;;;;;18.15;100.00;147292.44;4999578;28;19929;-82
2022/09/23 14:47:17;;;;;;;;;;;;;;;18.21;100.00;147307.81;4998238;28;19917;-82
2022/09/23 14:52:35;;;;;;;;;;;;;;;18.14;100.00;147288.63;5016788;28;20020;-82
2022/09/23 14:55:04;;;;;;;;;;;;;;;18.01;100.00;147257.91;4985529;28;19925;-82
2022/09/23 14:57:31;;;;;;;;;;;;;;;17.96;100.00;147243.84;4999101;28;19921;-82
2022/09/23 15:00:19;;;;;;;;;;;;;;;17.96;100.00;147245.16;4999515;28;19964;-82
2022/09/23 15:03:09;;;;;;;;;;;;;;;17.97;100.00;147247.66;5015214;28;20325;-83
2022/09/23 15:05:45;;;;;;;;;;;;;;;17.90;100.00;147231.06;4997984;28;19949;-81
2022/09/23 15:08:19;;;;;;;;;;;;;;;17.94;100.00;122143.88;4982116;28;19972;-81
2022/09/23 15:10:46;;;;;;;;;;;;;;;18.00;100.00;96866.66;4983046;28;19926;-83
2022/09/23 15:13:28;;;;;;;;;;;;;;;17.87;100.00;76460.81;5015766;28;20008;-82
2022/09/23 15:16:16;;;;;;;;;;;;;;;17.83;100.00;56174.13;4998369;28;19917;-82
2022/09/23 15:19:02;;;;;;;;;;;;;;;17.68;100.00;42027.41;5014434;28;20343;-80
2022/09/23 15:21:59;;;;;;;;;;;;;;;17.82;100.00;30632.97;5014354;28;19917;-82
2022/09/23 15:24:58;;;;;;;;;;;;;;;17.64;100.00;20255.13;5015482;28;19921;-83
2022/09/23 15:27:44;;;;;;;;;;;;;;;17.62;100.00;12913.59;5015537;28;19922;-82
2022/09/23 15:30:46;;;;;;;;;;;;;;;17.40;100.00;9242.84;4997802;28;19940;-83
2022/09/23 15:33:34;;;;;;;;;;;;;;;17.44;100.00;3255.72;4940391;28;19919;-81
2022/09/23 15:36:24;;;;;;;;;;;;;;;17.46;100.00;-2059.06;5012973;28;19980;-83
2022/09/23 15:39:16;;;;;;;;;;;;;;;17.30;100.00;-5377.88;5014343;28;19918;-82
2022/09/23 15:42:09;;;;;;;;;;;;;;;17.33;100.00;-12004.31;5012813;28;19917;-82
2022/09/23 15:45:14;;;;;;;;;;;;;;;17.34;100.00;-16636.31;5003001;28;20365;-82
2022/09/23 15:47:40;;;;;;;;;;;;;;;17.18;100.00;-20928.97;5015705;28;19964;-81
2022/09/23 15:50:11;;;;;;;;;;;;;;;17.19;100.00;-24559.50;5015286;28;20307;-83
2022/09/23 15:53:20;;;;;;;;;;;;;;;16.95;100.00;-25544.28;5015021;28;19924;-83
2022/09/23 15:55:52;;;;;;;;;;;;;;;16.88;100.00;-25542.13;4998238;28;19922;-81
2022/09/23 15:58:19;;;;;;;;;;;;;;;16.82;100.00;-25540.66;4990850;28;19933;-81
2022/09/23 16:00:52;;;;;;;;;;;;;;;16.91;100.00;-25542.97;5014928;28;19924;-82
2022/09/23 16:03:21;;;;;;;;;;;;;;;16.93;100.00;-25543.72;5014839;28;19964;-82
2022/09/23 16:05:52;;;;;;;;;;;;;;;16.76;100.00;-25538.91;5014806;28;19918;-82
2022/09/23 16:11:34;;;;;;;;;;;;;;;16.55;100.00;-25532.97;4981752;28;19956;-82
2022/09/23 16:14:08;;;;;;;;;;;;;;;16.43;100.00;-25529.63;4997913;28;19917;-81
2022/09/23 16:16:33;;;;;;;;;;;;;;;16.29;100.00;-25525.56;4996848;28;20290;-82
2022/09/23 16:18:59;;;;;;;;;;;;;;;16.11;100.00;-25520.63;4996501;28;19922;-82
2022/09/23 16:21:25;;;;;;;;;;;;;;;16.18;100.00;-25522.38;4997115;28;19925;-82
2022/09/23 16:23:53;;;;;;;;;;;;;;;16.14;100.00;-25521.50;4997110;28;20516;-81
2022/09/23 16:26:20;;;;;;;;;;;;;;;16.20;100.00;-25523.09;4997049;28;19918;-81
2022/09/23 16:28:46;;;;;;;;;;;;;;;16.27;100.00;-25524.97;4997272;28;20019;-81
2022/09/23 16:31:14;;;;;;;;;;;;;;;16.27;100.00;-25524.97;4980285;28;19929;-81
2022/09/23 16:33:52;;;;;;;;;;;;;;;16.32;100.00;-25526.44;4996178;28;19922;-81
2022/09/23 16:36:22;;;;;;;;;;;;;;;16.33;100.00;-25526.88;4997061;28;20007;-81
2022/09/23 16:38:48;;;;;;;;;;;;;;;16.35;100.00;-25527.31;4996982;28;19929;-81
2022/09/23 16:41:13;;;;;;;;;;;;;;;16.17;100.00;-25522.22;4996571;28;20346;-81
2022/09/23 16:43:41;;;;;;;;;;;;;;;16.11;100.00;-25520.63;4996077;28;19921;-82
2022/09/23 16:46:07;;;;;;;;;;;;;;;16.11;100.00;-25520.47;4996377;28;19921;-81
2022/09/23 16:48:33;;;;;;;;;;;;;;;16.00;100.00;-25517.28;4995617;28;19925;-81
2022/09/23 16:51:03;;;;;;;;;;;;;;;16.10;100.00;-25520.19;4995955;28;19921;-81
2022/09/23 16:53:28;;;;;;;;;;;;;;;16.14;100.00;-25521.50;4995311;28;20014;-81
2022/09/23 16:55:56;;;;;;;;;;;;;;;16.18;100.00;-25522.50;4995858;28;19964;-82
2022/09/23 16:58:22;;;;;;;;;;;;;;;16.17;100.00;-25522.06;4996148;28;19924;-81
2022/09/23 17:03:40;;;;;;;;;;;;;;;15.97;100.00;-25516.56;5014382;28;19925;-81
2022/09/23 17:06:12;;;;;;;;;;;;;;;15.97;100.00;-25516.56;4996258;28;19964;-81
2022/09/23 17:08:39;;;;;;;;;;;;;;;15.90;100.00;-25514.53;5013217;28;20358;-82
2022/09/23 17:11:07;;;;;;;;;;;;;;;15.91;100.00;-25514.81;5013532;28;20000;-82
2022/09/23 17:13:35;;;;;;;;;;;;;;;15.90;100.00;-25514.53;4995198;28;20391;-82
2022/09/23 17:18:51;;;;;;;;;;;;;;;15.83;100.00;-25512.63;5013896;28;19944;-82
2022/09/23 17:21:17;;;;;;;;;;;;;;;15.84;100.00;-25512.78;4995959;28;20374;-82
2022/09/23 17:23:47;;;;;;;;;;;;;;;15.76;100.00;-25510.72;4995514;28;20646;-82
2022/09/23 17:26:15;;;;;;;;;;;;;;;15.73;100.00;-25509.88;5012658;28;19968;-82
2022/09/23 17:28:41;;;;;;;;;;;;;;;15.72;100.00;-25509.44;5012646;28;19953;-82
2022/09/23 17:31:07;;;;;;;;;;;;;;;15.74;100.00;-25510.00;4995285;28;20538;-82
2022/09/23 17:33:36;;;;;;;;;;;;;;;15.71;100.00;-25509.13;4995728;28;19922;-81